createdAt,value
2023-04-17T00:01:48.448Z,11.40
2023-04-17T00:04:54.761Z,11.40
2023-04-17T00:08:01.832Z,11.40
2023-04-17T00:11:08.879Z,11.40
2023-04-17T00:14:13.052Z,11.40
2023-04-17T00:17:18.880Z,11.50
2023-04-17T00:20:22.571Z,11.40
2023-04-17T00:23:30.185Z,11.40
2023-04-17T00:26:34.193Z,11.40
2023-04-17T00:29:39.879Z,11.40
2023-04-17T00:32:43.585Z,11.40
2023-04-17T00:35:49.422Z,11.40
2023-04-17T00:38:55.237Z,11.40
2023-04-17T00:42:01.153Z,11.30
2023-04-17T00:45:05.561Z,11.40
2023-04-17T00:48:12.742Z,11.30
2023-04-17T00:51:16.722Z,11.30
2023-04-17T00:54:43.001Z,11.20
2023-04-17T00:57:49.892Z,11.20
2023-04-17T01:00:55.728Z,11.20
2023-04-17T01:04:01.235Z,11.20
2023-04-17T01:07:07.091Z,11.20
2023-04-17T01:10:12.888Z,11.20
2023-04-17T01:13:18.619Z,11.20
2023-04-17T01:16:22.868Z,11.20
2023-04-17T01:19:29.428Z,11.20
2023-04-17T01:22:33.114Z,11.20
2023-04-17T01:25:40.741Z,11.10
2023-04-17T01:28:44.602Z,11.10
2023-04-17T01:31:50.264Z,11.10
2023-04-17T01:34:53.991Z,11.10
2023-04-17T01:37:59.896Z,11.10
2023-04-17T01:41:09.343Z,11.10
2023-04-17T01:44:15.302Z,11.20
2023-04-17T01:47:19.066Z,11.20
2023-04-17T01:50:24.787Z,11.10
2023-04-17T01:53:28.828Z,11.10
2023-04-17T01:56:36.525Z,11.10
2023-04-17T01:59:40.556Z,11.10
2023-04-17T02:02:46.426Z,11.10
2023-04-17T02:05:50.274Z,11.10
2023-04-17T02:08:55.969Z,11.10
2023-04-17T02:12:01.864Z,11.10
2023-04-17T02:15:08.557Z,11.10
2023-04-17T02:18:12.484Z,11.00
2023-04-17T02:21:18.292Z,11.10
2023-04-17T02:24:21.980Z,11.20
2023-04-17T02:27:29.673Z,11.20
2023-04-17T02:30:33.581Z,11.10
2023-04-17T02:33:39.941Z,11.10
2023-04-17T02:36:45.131Z,11.20
2023-04-17T02:39:51.574Z,11.10
2023-04-17T02:42:57.257Z,11.10
2023-04-17T02:46:03.013Z,11.50
2023-04-17T02:49:07.011Z,11.20
2023-04-17T02:52:12.819Z,11.10
2023-04-17T02:55:16.963Z,11.20
2023-04-17T02:58:24.647Z,11.20
2023-04-17T03:01:29.380Z,11.10
2023-04-17T03:04:35.549Z,11.10
2023-04-17T03:07:39.346Z,11.10
2023-04-17T03:10:45.134Z,11.20
2023-04-17T03:13:50.966Z,11.20
2023-04-17T03:16:56.969Z,11.10
2023-04-17T03:20:00.713Z,11.10
2023-04-17T03:23:06.460Z,11.10
2023-04-17T03:26:10.956Z,11.20
2023-04-17T03:29:18.999Z,11.20
2023-04-17T03:32:42.698Z,11.20
2023-04-17T03:35:48.533Z,11.10
2023-04-17T03:38:52.655Z,11.20
2023-04-17T03:41:58.359Z,11.20
2023-04-17T03:45:04.468Z,11.20
2023-04-17T03:48:12.056Z,11.10
2023-04-17T03:51:16.343Z,11.20
2023-04-17T03:54:22.510Z,11.10
2023-04-17T03:57:28.414Z,11.10
2023-04-17T04:00:36.867Z,11.10
2023-04-17T04:03:44.947Z,11.10
2023-04-17T04:06:53.879Z,11.10
2023-04-17T04:09:57.657Z,11.10
2023-04-17T04:13:04.775Z,11.10
2023-04-17T04:16:10.784Z,11.20
2023-04-17T04:19:18.654Z,11.20
2023-04-17T04:22:23.076Z,11.20
2023-04-17T04:25:31.946Z,11.10
2023-04-17T04:28:50.588Z,11.10
2023-04-17T04:32:13.039Z,11.20
2023-04-17T04:35:19.937Z,11.20
2023-04-17T04:38:30.384Z,11.20
2023-04-17T04:41:37.853Z,11.10
2023-04-17T04:44:47.059Z,11.20
2023-04-17T04:47:53.699Z,11.20
2023-04-17T04:50:59.590Z,11.20
2023-04-17T04:54:03.634Z,11.20
2023-04-17T04:57:10.733Z,11.20
2023-04-17T05:00:17.619Z,11.20
2023-04-17T05:03:27.670Z,11.20
2023-04-17T05:06:31.627Z,11.30
2023-04-17T05:09:42.211Z,11.20
2023-04-17T05:12:46.566Z,11.20
2023-04-17T05:15:53.416Z,11.20
2023-04-17T05:19:04.418Z,11.20
2023-04-17T05:22:27.170Z,11.20
2023-04-17T05:25:39.756Z,11.30
2023-04-17T05:28:46.600Z,11.30
2023-04-17T05:31:55.898Z,11.20
2023-04-17T05:35:25.434Z,11.20
2023-04-17T05:38:29.508Z,11.20
2023-04-17T05:41:35.588Z,11.30
2023-04-17T05:44:39.464Z,11.20
2023-04-17T05:47:45.466Z,11.20
2023-04-17T05:50:51.447Z,11.20
2023-04-17T05:53:57.212Z,11.20
2023-04-17T05:57:01.920Z,11.30
2023-04-17T06:00:12.560Z,11.20
2023-04-17T06:03:19.367Z,11.20
2023-04-17T06:06:30.889Z,11.20
2023-04-17T06:09:36.124Z,11.20
2023-04-17T06:12:42.245Z,11.30
2023-04-17T06:15:48.468Z,11.20
2023-04-17T06:18:54.154Z,11.20
2023-04-17T06:21:59.843Z,11.30
2023-04-17T06:25:06.165Z,11.30
2023-04-17T06:28:09.910Z,11.30
2023-04-17T06:31:15.979Z,11.40
2023-04-17T06:34:20.318Z,11.30
2023-04-17T06:37:28.656Z,11.30
2023-04-17T06:40:32.588Z,11.40
2023-04-17T06:43:38.362Z,11.40
2023-04-17T06:46:52.822Z,11.40
2023-04-17T06:49:59.453Z,11.40
2023-04-17T06:53:05.328Z,11.40
2023-04-17T06:56:11.065Z,11.50
2023-04-17T06:59:15.065Z,11.50
2023-04-17T07:02:21.075Z,11.20
2023-04-17T07:05:25.074Z,11.60
2023-04-17T07:08:32.737Z,11.60
2023-04-17T07:11:36.419Z,11.60
2023-04-17T07:14:42.589Z,11.60
2023-04-17T07:17:46.375Z,11.60
2023-04-17T07:20:52.393Z,11.80
2023-04-17T07:23:57.993Z,11.70
2023-04-17T07:27:03.989Z,11.70
2023-04-17T07:30:10.456Z,11.70
2023-04-17T07:33:16.238Z,11.90
2023-04-17T07:36:19.979Z,11.80
2023-04-17T07:39:31.067Z,12.00
2023-04-17T07:42:34.905Z,12.00
2023-04-17T07:45:41.943Z,12.10
2023-04-17T07:48:45.879Z,12.20
2023-04-17T07:51:51.954Z,12.30
2023-04-17T07:54:57.894Z,12.30
2023-04-17T07:58:03.636Z,12.40
2023-04-17T08:01:07.832Z,12.50
2023-04-17T08:04:13.913Z,12.60
2023-04-17T08:07:19.809Z,12.60
2023-04-17T08:10:27.828Z,12.70
2023-04-17T08:13:31.673Z,12.80
2023-04-17T08:16:37.439Z,12.90
2023-04-17T08:19:41.172Z,13.00
2023-04-17T08:22:47.760Z,13.00
2023-04-17T08:25:53.413Z,13.10
2023-04-17T08:29:01.069Z,13.10
2023-04-17T08:32:13.218Z,13.20
2023-04-17T08:35:20.778Z,13.30
2023-04-17T08:38:24.618Z,13.30
2023-04-17T08:41:36.861Z,13.40
2023-04-17T08:44:40.655Z,13.50
2023-04-17T08:47:46.472Z,13.50
2023-04-17T08:50:50.857Z,13.60
2023-04-17T08:53:56.871Z,13.80
2023-04-17T08:57:05.431Z,13.70
2023-04-17T09:00:12.661Z,13.80
2023-04-17T09:03:16.697Z,13.80
2023-04-17T09:06:22.627Z,13.90
2023-04-17T09:09:26.611Z,13.90
2023-04-17T09:12:41.188Z,14.00
2023-04-17T09:15:45.521Z,14.10
2023-04-17T09:18:51.385Z,14.20
2023-04-17T09:21:55.658Z,14.10
2023-04-17T09:25:01.616Z,14.30
2023-04-17T09:28:14.042Z,14.40
2023-04-17T09:31:27.727Z,14.40
2023-04-17T09:34:41.595Z,14.50
2023-04-17T09:37:51.112Z,14.50
2023-04-17T09:40:54.899Z,14.60
2023-04-17T09:44:04.935Z,14.70
2023-04-17T09:47:09.271Z,14.80
2023-04-17T09:50:16.113Z,14.80
2023-04-17T09:53:20.671Z,14.90
2023-04-17T09:56:27.577Z,14.90
2023-04-17T09:59:33.677Z,15.00
2023-04-17T10:02:39.781Z,15.20
2023-04-17T10:05:43.828Z,15.20
2023-04-17T10:08:49.753Z,15.20
2023-04-17T10:11:53.723Z,15.30
2023-04-17T10:15:01.574Z,15.40
2023-04-17T10:18:20.392Z,15.40
2023-04-17T10:21:27.835Z,15.50
2023-04-17T10:24:31.533Z,15.60
2023-04-17T10:27:47.091Z,15.60
2023-04-17T10:30:53.902Z,15.70
2023-04-17T10:33:59.702Z,15.80
2023-04-17T10:37:04.440Z,15.90
2023-04-17T10:40:14.048Z,15.90
2023-04-17T10:43:19.888Z,16.10
2023-04-17T10:46:31.446Z,16.10
2023-04-17T10:49:47.902Z,16.20
2023-04-17T10:52:53.588Z,16.30
2023-04-17T10:55:58.443Z,16.50
2023-04-17T10:59:05.002Z,16.50
2023-04-17T11:02:10.882Z,16.60
2023-04-17T11:05:16.923Z,16.70
2023-04-17T11:08:20.709Z,16.90
2023-04-17T11:11:40.372Z,17.00
2023-04-17T11:14:47.631Z,17.10
2023-04-17T11:17:55.492Z,17.20
2023-04-17T11:20:59.404Z,17.30
2023-04-17T11:24:05.528Z,17.30
2023-04-17T11:27:09.204Z,17.40
2023-04-17T11:30:15.810Z,17.50
2023-04-17T11:33:21.558Z,17.60
2023-04-17T11:36:27.534Z,17.70
2023-04-17T11:39:31.846Z,17.80
2023-04-17T11:42:39.463Z,17.80
2023-04-17T11:45:44.512Z,17.90
2023-04-17T11:48:52.776Z,18.00
2023-04-17T11:51:59.325Z,18.00
2023-04-17T11:55:05.332Z,18.20
2023-04-17T11:58:10.100Z,18.30
2023-04-17T12:01:15.868Z,18.30
2023-04-17T12:04:23.603Z,18.50
2023-04-17T12:07:29.386Z,18.50
2023-04-17T12:10:39.613Z,18.60
2023-04-17T12:13:45.582Z,18.70
2023-04-17T12:16:51.241Z,18.80
2023-04-17T12:20:02.356Z,18.80
2023-04-17T12:23:06.616Z,18.90
2023-04-17T12:26:12.377Z,18.90
2023-04-17T12:29:16.158Z,18.80
2023-04-17T12:32:21.956Z,18.80
2023-04-17T12:35:27.639Z,18.80
2023-04-17T12:38:33.397Z,18.80
2023-04-17T12:41:37.149Z,18.90
2023-04-17T12:44:42.848Z,18.90
2023-04-17T12:47:46.596Z,19.00
2023-04-17T12:50:54.256Z,19.00
2023-04-17T12:53:58.167Z,19.30
2023-04-17T12:57:04.220Z,19.20
2023-04-17T13:00:09.096Z,19.30
2023-04-17T13:03:15.316Z,19.20
2023-04-17T13:06:21.090Z,19.20
2023-04-17T13:09:26.813Z,19.30
2023-04-17T13:12:30.506Z,19.20
2023-04-17T13:15:36.321Z,19.10
2023-04-17T13:18:40.061Z,19.20
2023-04-17T13:21:47.714Z,19.20
2023-04-17T13:24:51.489Z,19.20
2023-04-17T13:27:57.189Z,19.60
2023-04-17T13:31:00.930Z,19.30
2023-04-17T13:34:06.632Z,19.30
2023-04-17T13:37:14.062Z,19.30
2023-04-17T13:40:19.878Z,19.40
2023-04-17T13:43:23.699Z,19.40
2023-04-17T13:46:29.423Z,19.40
2023-04-17T13:49:33.130Z,19.40
2023-04-17T13:52:40.882Z,19.40
2023-04-17T13:55:44.637Z,19.40
2023-04-17T13:58:51.750Z,19.50
2023-04-17T14:01:55.521Z,19.50
2023-04-17T14:05:01.343Z,19.60
2023-04-17T14:08:07.129Z,19.50
2023-04-17T14:11:12.984Z,19.60
2023-04-17T14:14:16.733Z,19.50
2023-04-17T14:17:22.500Z,19.40
2023-04-17T14:20:26.239Z,19.40
2023-04-17T14:23:33.917Z,19.30
2023-04-17T14:26:38.416Z,19.20
2023-04-17T14:29:44.095Z,19.20
2023-04-17T14:32:48.872Z,19.10
2023-04-17T14:35:56.290Z,19.00
2023-04-17T14:39:02.219Z,19.10
2023-04-17T14:42:07.905Z,19.00
2023-04-17T14:45:12.827Z,19.00
2023-04-17T14:48:19.303Z,19.10
2023-04-17T14:51:23.035Z,19.00
2023-04-17T14:54:30.708Z,19.00
2023-04-17T14:57:34.491Z,19.00
2023-04-17T15:00:40.499Z,19.00
2023-04-17T15:03:48.259Z,19.10
2023-04-17T15:06:54.668Z,18.90
2023-04-17T15:10:00.369Z,19.00
2023-04-17T15:13:06.187Z,19.00
2023-04-17T15:16:10.738Z,19.00
2023-04-17T15:19:16.597Z,19.10
2023-04-17T15:22:20.343Z,19.00
2023-04-17T15:25:28.037Z,19.00
2023-04-17T15:28:32.581Z,19.00
2023-04-17T15:31:39.843Z,19.00
2023-04-17T15:34:43.648Z,19.00
2023-04-17T15:37:49.480Z,19.00
2023-04-17T15:40:55.111Z,19.00
2023-04-17T15:44:00.990Z,19.00
2023-04-17T15:47:05.121Z,19.00
2023-04-17T15:50:11.588Z,18.90
2023-04-17T15:53:17.377Z,18.90
2023-04-17T15:56:25.087Z,18.90
2023-04-17T15:59:28.758Z,18.80
2023-04-17T16:02:34.550Z,18.80
2023-04-17T16:05:38.344Z,18.80
2023-04-17T16:08:44.052Z,18.80
2023-04-17T16:11:50.130Z,18.70
2023-04-17T16:14:55.844Z,18.70
2023-04-17T16:17:59.522Z,18.80
2023-04-17T16:21:05.773Z,18.70
2023-04-17T16:24:09.604Z,18.70
2023-04-17T16:27:17.180Z,18.60
2023-04-17T16:30:21.035Z,18.60
2023-04-17T16:33:26.813Z,18.60
2023-04-17T16:36:31.680Z,18.50
2023-04-17T16:39:38.856Z,18.50
2023-04-17T16:42:45.348Z,18.50
2023-04-17T16:45:51.043Z,18.50
2023-04-17T16:48:54.973Z,18.50
2023-04-17T16:52:00.769Z,18.40
2023-04-17T16:55:04.589Z,18.40
2023-04-17T16:58:12.221Z,18.30
2023-04-17T17:01:15.999Z,18.30
2023-04-17T17:04:21.848Z,18.30
2023-04-17T17:07:25.880Z,18.20
2023-04-17T17:10:31.594Z,18.10
2023-04-17T17:13:37.232Z,18.10
2023-04-17T17:16:43.177Z,18.00
2023-04-17T17:19:47.110Z,17.90
2023-04-17T17:22:52.997Z,17.90
2023-04-17T17:25:56.906Z,17.90
2023-04-17T17:29:04.815Z,17.80
2023-04-17T17:32:09.280Z,17.70
2023-04-17T17:35:15.005Z,17.70
2023-04-17T17:38:18.696Z,17.70
2023-04-17T17:41:24.419Z,17.60
2023-04-17T17:44:31.818Z,17.60
2023-04-17T17:47:37.578Z,17.50
2023-04-17T17:50:41.255Z,17.50
2023-04-17T17:53:46.999Z,17.40
2023-04-17T17:56:50.718Z,17.30
2023-04-17T17:59:59.363Z,17.20
2023-04-17T18:03:03.203Z,17.30
2023-04-17T18:06:09.037Z,17.20
2023-04-17T18:09:12.679Z,17.10
2023-04-17T18:12:18.385Z,17.00
2023-04-17T18:15:23.996Z,17.00
2023-04-17T18:18:29.684Z,16.90
2023-04-17T18:21:33.469Z,16.80
2023-04-17T18:24:39.138Z,16.80
2023-04-17T18:27:42.891Z,16.70
2023-04-17T18:30:50.740Z,16.70
2023-04-17T18:33:54.526Z,16.60
2023-04-17T18:37:00.712Z,16.50
2023-04-17T18:40:06.720Z,16.50
2023-04-17T18:43:12.472Z,16.40
2023-04-17T18:46:18.202Z,16.40
2023-04-17T18:49:23.999Z,16.30
2023-04-17T18:52:27.719Z,16.30
2023-04-17T18:55:34.718Z,16.20
2023-04-17T18:58:39.797Z,16.10
2023-04-17T19:01:47.473Z,16.10
2023-04-17T19:04:51.174Z,16.00
2023-04-17T19:07:56.926Z,15.90
2023-04-17T19:11:00.890Z,15.80
2023-04-17T19:14:06.728Z,15.60
2023-04-17T19:17:17.033Z,15.70
2023-04-17T19:20:22.896Z,15.70
2023-04-17T19:23:26.846Z,15.60
2023-04-17T19:26:32.556Z,15.50
2023-04-17T19:29:36.552Z,15.40
2023-04-17T19:32:44.174Z,15.40
2023-04-17T19:35:47.981Z,15.30
2023-04-17T19:38:54.953Z,15.20
2023-04-17T19:41:58.670Z,15.10
2023-04-17T19:45:04.518Z,15.10
2023-04-17T19:48:10.455Z,15.00
2023-04-17T19:51:16.987Z,15.00
2023-04-17T19:54:20.703Z,14.90
2023-04-17T19:57:26.452Z,14.80
2023-04-17T20:00:30.132Z,15.00
2023-04-17T20:03:39.705Z,14.80
2023-04-17T20:06:43.722Z,14.80
2023-04-17T20:09:49.401Z,14.70
2023-04-17T20:12:53.141Z,14.70
2023-04-17T20:15:58.931Z,14.80
2023-04-17T20:19:04.553Z,14.70
2023-04-17T20:22:10.392Z,14.70
2023-04-17T20:25:14.073Z,14.60
2023-04-17T20:28:19.876Z,14.60
2023-04-17T20:31:23.587Z,14.60
2023-04-17T20:34:34.428Z,14.50
2023-04-17T20:37:40.129Z,14.50
2023-04-17T20:40:45.933Z,14.40
2023-04-17T20:43:57.249Z,14.40
2023-04-17T20:47:02.970Z,14.30
2023-04-17T20:50:09.558Z,14.30
2023-04-17T20:53:15.413Z,14.20
2023-04-17T20:56:19.217Z,14.10
2023-04-17T20:59:24.967Z,14.10
2023-04-17T21:02:29.663Z,14.00
2023-04-17T21:05:38.315Z,13.90
2023-04-17T21:08:42.007Z,13.80
2023-04-17T21:11:47.734Z,13.70
2023-04-17T21:14:51.409Z,13.60
2023-04-17T21:17:57.129Z,13.50
2023-04-17T21:21:02.725Z,13.50
2023-04-17T21:24:08.656Z,13.40
2023-04-17T21:27:12.351Z,13.30
2023-04-17T21:30:18.208Z,13.30
2023-04-17T21:33:21.943Z,13.30
2023-04-17T21:36:29.654Z,13.10
2023-04-17T21:39:33.530Z,13.00
2023-04-17T21:42:39.185Z,12.90
2023-04-17T21:45:42.877Z,12.80
2023-04-17T21:48:48.521Z,12.70
2023-04-17T21:51:54.331Z,12.60
2023-04-17T21:55:04.480Z,12.50
2023-04-17T21:58:08.299Z,12.40
2023-04-17T22:01:13.990Z,12.40
2023-04-17T22:04:17.769Z,12.30
2023-04-17T22:07:25.624Z,12.20
2023-04-17T22:10:30.127Z,12.20
2023-04-17T22:13:35.852Z,12.10
2023-04-17T22:16:41.667Z,12.00
2023-04-17T22:19:47.376Z,11.90
2023-04-17T22:22:52.982Z,11.90
2023-04-17T22:25:58.657Z,11.80
2023-04-17T22:29:02.315Z,11.80
2023-04-17T22:32:07.988Z,11.70
2023-04-17T22:35:11.710Z,11.60
2023-04-17T22:38:20.276Z,11.50
2023-04-17T22:41:24.018Z,11.40
2023-04-17T22:44:29.744Z,11.40
2023-04-17T22:47:33.432Z,11.40
2023-04-17T22:50:39.349Z,11.30
2023-04-17T22:53:46.101Z,11.20
2023-04-17T22:56:51.760Z,11.20
2023-04-17T22:59:55.426Z,11.10
2023-04-17T23:03:01.251Z,11.10
2023-04-17T23:06:06.944Z,11.00
2023-04-17T23:09:14.536Z,10.90
2023-04-17T23:12:18.237Z,10.90
2023-04-17T23:15:23.917Z,10.80
2023-04-17T23:18:27.667Z,10.80
2023-04-17T23:21:33.321Z,10.70
2023-04-17T23:24:38.936Z,10.70
2023-04-17T23:27:44.634Z,10.60
2023-04-17T23:30:48.367Z,10.50
2023-04-17T23:33:54.068Z,10.50
2023-04-17T23:36:57.773Z,10.50
2023-04-17T23:40:07.129Z,10.40
2023-04-17T23:43:10.831Z,10.40
2023-04-17T23:46:17.180Z,10.40
2023-04-17T23:49:20.886Z,10.30
2023-04-17T23:52:27.387Z,10.30
2023-04-17T23:55:33.026Z,10.30
2023-04-17T23:58:38.715Z,10.30
